Latest Weather Observations for Bankstown

IDN60801

Issued at 6:35 pm EST Wednesday 20 August 2014 (issued every 30 minutes, with the page automatically refreshed every 10 minutes)

About weather observations | Map of weather stations | Latest weather observations for NSW | Other Formats
Station Details ID: 066137 Name: BANKSTOWN AIRPORT AWS Lat: -33.92 Lon: 150.99 Height: 6.5 m
Data from the previous 72 hours. | See also: Recent months at Bankstown
Date/Time
EST
Temp
°C
App
Temp
°C
Dew
Point
Rel
Hum
%
Delta-T
°C
Wind Press
QNH
hPa
Press
MSL
hPa
Rain
since 9 am
mm
Dir
 
Spd
km/h
Gust
km/h
Spd
kts
Gust
kts
20/06:30pm 13.9 8.1 6.3 60 3.6 SE 26 35 14 19 1025.9 - 0.0
20/06:00pm 14.2 7.6 6.1 58 3.8 SE 30 37 16 20 1025.7 1025.7 0.0
20/05:30pm 14.4 9.3 6.0 57 4.0 SE 22 35 12 19 1025.3 - 0.0
20/05:00pm 14.7 9.9 5.5 54 4.3 SSE 20 32 11 17 1025.0 1025.0 0.0
20/04:30pm 15.6 10.8 5.5 51 4.8 SSE 20 26 11 14 1024.9 - 0.0
20/04:00pm 15.4 9.7 4.8 49 4.9 SE 24 30 13 16 1024.7 1024.7 0.0
20/03:30pm 15.7 10.0 5.0 49 5.1 SE 24 28 13 15 1024.6 - 0.0
20/03:00pm 15.3 10.4 4.9 50 4.9 S 20 28 11 15 1024.4 1024.4 0.0
20/02:30pm 15.5 10.3 5.4 51 4.8 SSE 22 26 12 14 1024.3 - 0.0
20/02:00pm 15.9 10.4 5.8 51 4.8 SE 24 30 13 16 1024.2 1024.2 0.0
20/01:30pm 15.8 10.1 5.1 49 5.1 SSE 24 33 13 18 1024.2 - 0.0
20/01:00pm 15.8 11.0 5.4 50 4.9 SE 20 28 11 15 1024.3 1024.3 0.0
20/12:30pm 15.6 10.5 5.8 52 4.7 SSE 22 32 12 17 1024.6 - 0.0
20/12:00pm 16.1 11.5 6.3 52 4.7 S 20 30 11 16 1024.9 1024.9 0.0
20/11:30am 14.9 9.7 5.7 54 4.4 SSE 22 30 12 16 1025.3 - 0.0
20/11:00am 15.3 10.9 6.6 56 4.2 S 19 26 10 14 1025.4 1025.4 0.0
20/10:30am 14.4 10.3 6.3 58 3.9 SW 17 24 9 13 1025.3 - 0.0
20/10:00am 13.9 9.4 6.0 59 3.7 SSW 19 26 10 14 1025.3 1025.3 0.0
20/09:30am 13.1 8.5 6.5 64 3.2 SSW 20 28 11 15 1025.4 - 0.0
20/09:00am 12.9 8.4 6.9 67 2.9 SSW 20 26 11 14 1025.3 1025.3 1.8
20/08:30am 12.3 8.6 6.1 66 2.9 SW 15 22 8 12 1025.1 - 1.8
20/08:00am 11.7 7.4 5.3 65 2.9 SW 17 22 9 12 1024.8 1024.8 1.8
20/07:30am 11.1 9.0 6.5 73 2.2 SW 7 9 4 5 1024.6 - 1.8
20/07:00am 10.5 7.9 6.1 74 2.0 SSW 9 13 5 7 1024.3 1024.3 1.8
20/06:30am 10.0 7.0 6.0 76 1.8 WSW 11 15 6 8 1023.9 - 1.8
20/06:00am 10.6 7.9 5.4 70 2.4 WSW 9 15 5 8 1023.5 1023.5 1.8
20/05:30am 10.5 6.9 5.1 69 2.5 SW 13 20 7 11 1023.0 - 1.8
20/05:00am 10.5 7.7 5.1 69 2.4 SW 9 15 5 8 1022.9 1022.9 1.8
20/04:30am 10.1 6.5 4.9 70 2.3 SW 13 19 7 10 1022.7 - 1.8
20/04:00am 9.5 6.6 4.7 72 2.1 SSW 9 13 5 7 1022.6 1022.6 1.8
20/03:30am 9.9 7.0 4.5 69 2.4 SW 9 13 5 7 1022.3 - 1.8
20/03:00am 9.9 6.7 4.9 71 2.2 SW 11 17 6 9 1022.0 1022.0 1.8
20/02:30am 9.0 6.0 4.0 71 2.2 SW 9 17 5 9 1022.0 - 1.8
20/02:00am 9.3 5.5 4.1 70 2.3 SW 13 19 7 10 1022.1 1022.1 1.8
20/01:30am 9.3 6.3 4.1 70 2.3 SW 9 13 5 7 1022.1 - 1.8
20/01:00am 9.8 6.8 4.2 68 2.5 WSW 9 13 5 7 1022.1 1022.1 1.8
20/12:30am 10.0 6.7 4.4 68 2.5 SSW 11 17 6 9 1022.0 - 1.8
20/12:00am 10.8 7.2 5.1 68 2.6 SW 13 19 7 10 1021.9 1021.9 1.8
 
Date/Time
EST
Temp
°C
App
Temp
°C
Dew
Point
Rel
Hum
%
Delta-T
°C
Wind Press
QNH
hPa
Press
MSL
hPa
Rain
since 9 am
mm
Dir
 
Spd
km/h
Gust
km/h
Spd
kts
Gust
kts
19/11:30pm 11.2 8.4 5.3 67 2.7 WSW 9 17 5 9 1021.9 - 1.8
19/11:00pm 11.7 8.7 6.0 68 2.7 SW 11 15 6 8 1021.9 1021.9 1.8
19/10:30pm 12.2 8.4 6.0 66 2.9 SW 15 22 8 12 1021.5 - 1.8
19/10:00pm 12.5 8.8 6.1 65 3.0 SSW 15 22 8 12 1021.5 1021.5 1.8
19/09:30pm 12.4 8.3 6.0 65 3.0 SSW 17 22 9 12 1021.4 - 1.8
19/09:00pm 12.6 7.9 6.2 65 3.0 SSW 20 30 11 16 1021.3 1021.3 1.8
19/08:30pm 13.1 8.1 6.5 64 3.2 SSW 22 30 12 16 1021.3 - 1.8
19/08:00pm 13.1 8.5 6.7 65 3.1 SSW 20 32 11 17 1021.1 1021.1 1.8
19/07:30pm 13.1 8.6 6.9 66 3.0 S 20 33 11 18 1020.8 - 1.8
19/07:00pm 13.1 9.2 6.9 66 3.0 SSW 17 24 9 13 1020.5 1020.5 1.8
19/06:30pm 13.0 9.6 7.5 69 2.7 S 15 22 8 12 1020.0 - 1.8
19/06:00pm 13.2 8.8 7.6 69 2.7 S 20 32 11 17 1019.5 1019.5 1.8
19/05:30pm 13.4 8.8 8.3 71 2.5 S 22 30 12 16 1019.0 - 1.8
19/05:00pm 13.3 10.0 9.5 78 1.9 S 17 24 9 13 1018.6 1018.6 1.8
19/04:30pm 13.2 10.8 10.0 81 1.6 SSW 13 20 7 11 1018.2 - 1.8
19/04:00pm 13.2 9.6 10.0 81 1.6 S 19 28 10 15 1017.8 1017.8 1.8
19/03:30pm 13.2 8.3 9.8 80 1.7 S 26 37 14 20 1017.6 - 1.6
19/03:00pm 13.4 8.6 10.2 81 1.7 S 26 39 14 21 1017.5 1017.5 1.6
19/02:43pm 13.6 7.6 10.0 79 1.9 S 32 50 17 27 1017.2 - 1.6
19/02:30pm 14.0 10.0 10.6 80 1.8 S 22 33 12 18 1017.1 - 1.6
19/02:00pm 13.4 9.4 10.6 83 1.5 S 22 30 12 16 1016.8 1016.8 1.4
19/01:30pm 14.3 10.8 10.9 80 1.8 SSE 20 30 11 16 1016.5 - 1.0
19/01:07pm 14.2 8.3 10.4 78 2.0 SSE 32 50 17 27 1016.2 - 1.0
19/01:00pm 14.8 8.6 10.0 73 2.5 SSE 33 50 18 27 1016.2 1016.2 0.6
19/12:30pm 17.3 10.0 8.7 57 4.4 S 37 57 20 31 1015.9 - 0.2
19/12:15pm 17.8 10.8 9.9 60 4.2 S 37 56 20 30 1015.8 - 0.2
19/12:11pm 17.2 8.5 8.6 57 4.4 SSE 44 54 24 29 1015.9 - 0.2
19/12:00pm 16.9 10.9 10.1 64 3.6 S 32 50 17 27 1016.0 1016.0 0.2
19/11:37am 15.8 8.9 8.8 63 3.6 S 35 57 19 31 1016.4 - 0.2
19/11:30am 17.3 10.6 9.7 61 4.0 S 35 50 19 27 1016.3 - 0.2
19/11:00am 16.8 12.5 10.6 67 3.3 S 24 41 13 22 1016.4 1016.4 0.2
19/10:38am 16.3 11.0 9.9 66 3.4 S 28 46 15 25 1016.2 - 0.2
19/10:30am 16.7 12.5 11.0 69 3.1 S 24 30 13 16 1016.2 - 0.2
19/10:00am 15.4 11.2 11.0 75 2.3 S 24 41 13 22 1016.1 1016.1 0.2
19/09:30am 14.7 11.4 11.5 81 1.7 S 20 30 11 16 1016.1 - 0.2
19/09:00am 13.6 10.6 10.8 83 1.5 SW 17 24 9 13 1016.1 1016.1 47.0
19/08:30am 13.4 10.9 10.9 85 1.3 SW 15 20 8 11 1015.7 - 47.0
19/08:00am 13.0 9.6 10.5 85 1.3 SSW 19 26 10 14 1015.4 1015.4 47.0
19/07:30am 13.0 9.1 10.9 87 1.1 SSW 22 30 12 16 1014.9 - 47.0
19/07:19am 13.0 8.6 10.5 85 1.3 SSW 24 32 13 17 1014.9 - 47.0
19/07:00am 13.3 10.3 10.7 84 1.4 SSW 17 24 9 13 1014.3 1014.3 46.6
19/06:30am 13.0 9.9 10.2 83 1.4 SSW 17 24 9 13 1014.0 - 46.6
19/06:00am 13.1 9.4 10.3 83 1.4 S 20 33 11 18 1013.6 1013.6 46.6
19/05:33am 13.2 8.1 10.7 85 1.3 S 28 56 15 30 1013.4 - 46.6
19/05:30am 13.2 9.4 11.1 87 1.1 SSW 22 56 12 30 1013.4 - 46.6
19/05:00am 13.0 9.2 11.2 89 0.9 SSW 22 37 12 20 1013.1 1013.1 46.2
19/04:38am 12.7 9.9 11.3 91 0.7 SSW 17 22 9 12 1012.7 - 46.2
19/04:30am 12.7 9.5 11.3 91 0.7 SSW 19 24 10 13 1012.6 - 46.0
19/04:28am 12.7 9.3 11.3 91 0.7 SSW 20 33 11 18 1012.6 - 46.0
19/04:00am 12.9 9.7 12.0 94 0.5 SSW 20 28 11 15 1012.1 1012.1 45.8
19/03:45am 12.3 10.3 11.4 94 0.5 SW 13 19 7 10 1012.1 - 45.8
19/03:30am 12.2 9.8 11.3 94 0.5 SW 15 19 8 10 1012.1 - 45.6
19/03:26am 12.2 9.8 11.3 94 0.5 SW 15 19 8 10 1012.0 - 45.4
19/03:12am 12.1 9.6 11.2 94 0.5 SW 15 20 8 11 1011.9 - 45.0
19/03:00am 12.1 9.3 11.2 94 0.5 SW 17 22 9 12 1011.9 1011.9 45.0
19/02:47am 12.1 9.6 11.2 94 0.5 SW 15 20 8 11 1011.7 - 44.8
19/02:43am 12.0 9.5 11.1 94 0.5 SW 15 20 8 11 1011.7 - 44.6
19/02:42am 12.1 9.6 11.2 94 0.5 SW 15 20 8 11 1011.7 - 44.4
19/02:30am 12.1 9.6 11.2 94 0.5 SW 15 22 8 12 1011.6 - 44.2
19/02:14am 12.2 9.4 11.3 94 0.5 SW 17 20 9 11 1011.7 - 41.8
19/02:03am 12.6 10.3 11.7 94 0.5 SW 15 22 8 12 1011.5 - 41.0
19/02:00am 12.6 10.3 11.7 94 0.5 SW 15 22 8 12 1011.5 1011.5 40.8
19/01:57am 12.6 10.3 11.7 94 0.5 SSW 15 22 8 12 1011.5 - 40.8
19/01:30am 12.3 9.5 11.4 94 0.5 SW 17 22 9 12 1011.4 - 40.6
19/01:29am 12.3 9.9 11.4 94 0.5 SW 15 22 8 12 1011.4 - 40.6
19/01:00am 12.2 9.0 11.3 94 0.5 SW 19 26 10 14 1011.1 1011.1 39.4
19/12:34am 12.1 8.9 11.2 94 0.5 SW 19 28 10 15 1010.9 - 37.6
19/12:30am 12.1 8.7 11.2 94 0.5 SW 20 28 11 15 1010.9 - 37.2
19/12:24am 12.1 8.7 11.2 94 0.5 SW 20 28 11 15 1010.8 - 37.2
19/12:00am 12.1 10.0 11.2 94 0.5 SSW 13 17 7 9 1010.6 1010.6 36.2
 
Date/Time
EST
Temp
°C
App
Temp
°C
Dew
Point
Rel
Hum
%
Delta-T
°C
Wind Press
QNH
hPa
Press
MSL
hPa
Rain
since 9 am
mm
Dir
 
Spd
km/h
Gust
km/h
Spd
kts
Gust
kts
18/11:30pm 12.1 8.3 11.0 93 0.6 SW 22 30 12 16 1010.5 - 30.2
18/11:00pm 12.4 8.6 11.3 93 0.6 WSW 22 35 12 19 1010.3 1010.3 27.4
18/10:57pm 12.5 8.8 11.4 93 0.6 SW 22 35 12 19 1010.2 - 27.2
18/10:47pm 12.5 9.1 11.4 93 0.6 SW 20 30 11 16 1010.2 - 26.4
18/10:30pm 12.5 9.7 11.4 93 0.6 SW 17 24 9 13 1010.2 - 25.6
18/10:00pm 12.6 9.8 11.5 93 0.6 SW 17 24 9 13 1009.8 1009.8 20.8
18/09:52pm 12.6 9.3 11.5 93 0.6 SW 20 28 11 15 1009.7 - 20.6
18/09:43pm 12.5 8.8 11.4 93 0.6 SW 22 32 12 17 1009.7 - 20.4
18/09:42pm 12.5 8.8 11.4 93 0.6 SW 22 32 12 17 1009.7 - 20.4
18/09:30pm 12.4 9.2 11.3 93 0.6 SW 19 28 10 15 1009.6 - 20.0
18/09:00pm 12.4 8.3 11.3 93 0.6 SW 24 33 13 18 1009.4 1009.4 16.8
18/08:58pm 12.4 8.6 11.3 93 0.6 SW 22 33 12 18 1009.3 - 16.8
18/08:54pm 12.3 8.8 11.0 92 0.7 SW 20 30 11 16 1009.3 - 16.8
18/08:53pm 12.4 9.0 11.1 92 0.7 SW 20 30 11 16 1009.3 - 16.6
18/08:30pm 12.3 9.0 11.0 92 0.7 SW 19 26 10 14 1009.0 - 15.6
18/08:00pm 12.2 8.3 10.9 92 0.7 SW 22 32 12 17 1008.8 1008.8 14.0
18/07:36pm 12.3 9.4 10.9 91 0.7 SSW 17 24 9 13 1008.7 - 13.4
18/07:30pm 12.3 9.0 10.9 91 0.7 SSW 19 30 10 16 1008.7 - 13.4
18/07:26pm 12.3 9.0 10.9 91 0.7 SSW 19 30 10 16 1008.6 - 13.2
18/07:00pm 12.4 8.4 10.6 89 0.9 SW 22 32 12 17 1008.1 1008.1 11.8
18/06:30pm 12.8 8.8 10.5 86 1.2 SW 22 33 12 18 1007.6 - 11.2
18/06:00pm 13.0 9.4 10.7 86 1.2 SW 20 32 11 17 1007.5 1007.5 11.0
18/05:40pm 13.4 10.1 10.8 84 1.4 SW 19 33 10 18 1007.2 - 10.8
18/05:30pm 13.7 10.2 10.9 83 1.5 SW 20 32 11 17 1007.1 - 10.6
18/05:00pm 13.9 9.6 10.9 82 1.6 SW 24 35 13 19 1006.8 1006.8 10.6
18/04:30pm 14.0 10.1 10.8 81 1.7 SW 22 32 12 17 1006.5 - 10.6
18/04:00pm 14.1 9.1 11.1 82 1.6 SSW 28 39 15 21 1006.4 1006.4 10.6
18/03:37pm 14.3 9.2 10.7 79 1.9 S 28 46 15 25 1006.1 - 10.6
18/03:30pm 14.5 9.0 10.5 77 2.1 S 30 46 16 25 1006.0 - 10.6
18/03:00pm 14.3 8.6 11.3 82 1.6 S 32 57 17 31 1006.0 1006.0 10.6
18/02:53pm 14.2 9.3 11.4 83 1.5 S 28 57 15 31 1006.0 - 10.6
18/02:30pm 14.7 9.0 11.3 80 1.8 S 32 46 17 25 1005.7 - 10.6
18/02:00pm 14.5 10.1 11.8 84 1.5 SSW 26 39 14 21 1005.7 1005.7 10.6
18/01:30pm 13.9 9.5 11.8 87 1.1 S 26 39 14 21 1005.7 - 10.6
18/01:21pm 13.8 8.6 11.7 87 1.1 S 30 41 16 22 1005.6 - 10.6
18/01:14pm 13.8 8.3 11.7 87 1.1 S 32 46 17 25 1005.6 - 10.6
18/01:10pm 13.6 8.4 11.7 88 1.0 S 30 46 16 25 1005.7 - 10.6
18/01:06pm 13.6 9.2 11.8 89 1.0 S 26 41 14 22 1005.6 - 10.6
18/01:00pm 13.6 9.3 12.0 90 0.9 S 26 41 14 22 1005.7 1005.7 10.6
18/12:56pm 13.4 8.6 11.6 89 1.0 S 28 41 15 22 1005.7 - 10.4
18/12:44pm 13.8 9.0 11.8 88 1.1 S 28 44 15 24 1005.6 - 10.2
18/12:39pm 13.9 9.2 11.9 88 1.1 S 28 43 15 23 1005.5 - 10.0
18/12:30pm 13.9 8.4 11.9 88 1.1 S 32 50 17 27 1005.5 - 10.0
18/12:17pm 13.7 8.0 11.7 88 1.1 S 33 46 18 25 1005.5 - 10.0
18/12:11pm 13.8 8.3 11.8 88 1.1 S 32 46 17 25 1005.5 - 10.0
18/12:00pm 13.4 7.6 11.6 89 1.0 S 33 48 18 26 1005.6 1005.6 10.0
18/11:56am 13.5 7.4 11.7 89 1.0 S 35 48 19 26 1005.6 - 9.8
18/11:39am 13.5 7.4 11.7 89 1.0 S 35 48 19 26 1005.5 - 9.6
18/11:30am 13.2 6.2 11.4 89 1.0 S 39 54 21 29 1005.5 - 9.4
18/11:23am 13.4 7.3 11.8 90 0.9 S 35 54 19 29 1005.5 - 9.2
18/11:00am 13.4 6.9 11.8 90 0.9 S 37 50 20 27 1005.3 1005.3 8.2
18/10:30am 13.1 4.9 11.7 91 0.7 S 46 76 25 41 1005.2 - 6.6
18/10:26am 12.9 4.2 11.3 90 0.8 S 48 76 26 41 1005.2 - 6.4
18/10:02am 13.1 6.3 12.0 93 0.6 SSE 39 63 21 34 1004.6 - 5.4
18/10:00am 13.0 6.2 11.9 93 0.6 SSE 39 56 21 30 1004.7 1004.7 5.2
18/09:30am 13.5 5.8 12.2 92 0.7 S 44 63 24 34 1003.8 - 2.0
18/09:00am 13.5 7.3 12.6 94 0.5 S 37 59 20 32 1003.1 1003.1 57.8
18/08:47am 13.3 7.8 12.4 94 0.5 S 33 54 18 29 1003.1 - 56.6
18/08:30am 13.3 10.3 12.5 95 0.4 S 20 35 11 19 1002.9 - 54.2
18/08:00am 11.4 9.1 10.5 94 0.5 NW 13 19 7 10 1003.7 1003.7 48.0
18/07:46am 11.2 9.6 10.1 93 0.6 NW 9 13 5 7 1003.9 - 44.0
18/07:30am 11.0 8.9 9.9 93 0.6 NW 11 15 6 8 1003.8 - 36.8
18/07:10am 11.1 9.8 10.0 93 0.6 WNW 7 11 4 6 1003.8 - 35.2
18/07:00am 11.2 9.9 10.1 93 0.6 WNW 7 9 4 5 1003.8 1003.8 34.4
18/06:30am 11.2 9.9 9.9 92 0.7 N 7 11 4 6 1003.1 - 34.4
18/06:00am 11.4 11.5 10.1 92 0.7 CALM 0 0 0 0 1002.7 1002.7 34.4
18/05:59am 11.4 11.5 10.1 92 0.7 CALM 0 0 0 0 1002.7 - 34.4
18/05:43am 11.3 11.4 10.0 92 0.7 CALM 0 4 0 2 1002.4 - 34.4
18/05:30am 11.2 10.1 9.9 92 0.7 N 6 7 3 4 1002.0 - 34.4
18/05:00am 11.2 9.8 9.6 90 0.8 NNW 7 9 4 5 1001.6 1001.6 33.8
18/04:30am 11.5 9.0 9.8 89 0.9 N 13 17 7 9 1000.8 - 33.6
18/04:00am 11.5 8.7 9.9 90 0.8 NNW 15 19 8 10 1000.7 1000.7 33.4
18/03:44am 11.5 8.3 9.9 90 0.8 NNW 17 20 9 11 1000.6 - 33.4
18/03:35am 11.6 8.8 10.0 90 0.8 NNW 15 20 8 11 1000.5 - 33.4
18/03:30am 11.7 8.9 10.1 90 0.8 NW 15 20 8 11 1000.5 - 33.4
18/03:21am 11.8 9.1 10.2 90 0.8 NW 15 20 8 11 1000.7 - 33.2
18/03:17am 11.9 9.2 10.3 90 0.8 NW 15 19 8 10 1000.8 - 33.2
18/03:00am 11.8 8.7 10.2 90 0.8 NNW 17 20 9 11 1001.0 1001.0 33.2
18/02:30am 11.4 8.9 9.8 90 0.8 NNW 13 19 7 10 1001.7 - 33.2
18/02:00am 11.3 8.8 9.7 90 0.8 NW 13 17 7 9 1002.2 1002.2 33.2
18/01:45am 11.4 8.8 9.5 88 1.0 NW 13 19 7 10 1002.4 - 33.2
18/01:33am 11.5 8.1 9.2 86 1.2 W 17 22 9 12 1002.6 - 33.2
18/01:30am 11.5 8.1 9.2 86 1.2 W 17 22 9 12 1002.7 - 33.2
18/01:00am 12.3 9.3 9.1 81 1.6 W 15 24 8 13 1003.1 1003.1 33.2
18/12:30am 12.4 10.9 9.2 81 1.6 WNW 7 13 4 7 1003.3 - 33.2
18/12:00am 12.4 10.8 8.9 79 1.8 WNW 7 7 4 4 1003.5 1003.5 33.2
 
Date/Time
EST
Temp
°C
App
Temp
°C
Dew
Point
Rel
Hum
%
Delta-T
°C
Wind Press
QNH
hPa
Press
MSL
hPa
Rain
since 9 am
mm
Dir
 
Spd
km/h
Gust
km/h
Spd
kts
Gust
kts
17/11:30pm 12.2 10.9 9.2 82 1.5 NW 6 7 3 4 1003.6 - 33.2
17/11:00pm 12.0 10.6 9.0 82 1.5 NW 6 7 3 4 1004.0 1004.0 33.2
17/10:30pm 11.8 10.4 8.8 82 1.5 WNW 6 7 3 4 1004.2 - 33.2
17/10:00pm 11.8 10.1 8.3 79 1.7 WNW 7 9 4 5 1004.4 1004.4 33.2
17/09:30pm 12.1 10.4 8.4 78 1.8 SSW 7 11 4 6 1004.9 - 33.2
17/09:00pm 12.7 10.3 8.6 76 2.1 W 11 13 6 7 1005.2 1005.2 33.2
17/08:30pm 13.0 9.4 8.5 74 2.2 W 17 26 9 14 1005.4 - 33.2
17/08:00pm 13.6 10.9 8.9 73 2.4 W 13 17 7 9 1005.6 1005.6 33.2
17/07:30pm 13.7 11.1 9.2 74 2.3 W 13 19 7 10 1005.5 - 33.2
17/07:00pm 13.7 11.6 9.6 76 2.1 SW 11 20 6 11 1005.4 1005.4 33.2

Other Formats:

Comma delimited format used in spreadsheet applications
http://www.bom.gov.au/fwo/IDN60801/IDN60801.94765.axf

JavaScript Object Notation format (JSON) in row-major order
http://www.bom.gov.au/fwo/IDN60801/IDN60801.94765.json